sensor_id;sensor_type;location;lat;lon;timestamp;temperature;humidity
24426;DHT22;12611;44.446;26.000;2024-03-06T00:01:17;11.60;78.80
24426;DHT22;12611;44.446;26.000;2024-03-06T00:03:46;11.60;79.10
24426;DHT22;12611;44.446;26.000;2024-03-06T00:06:15;11.60;79.00
24426;DHT22;12611;44.446;26.000;2024-03-06T00:08:43;11.60;78.90
24426;DHT22;12611;44.446;26.000;2024-03-06T00:11:13;11.60;79.00
24426;DHT22;12611;44.446;26.000;2024-03-06T00:13:42;11.60;79.20
24426;DHT22;12611;44.446;26.000;2024-03-06T00:16:12;11.60;79.90
24426;DHT22;12611;44.446;26.000;2024-03-06T00:18:44;11.50;80.00
24426;DHT22;12611;44.446;26.000;2024-03-06T00:21:13;11.50;80.40
24426;DHT22;12611;44.446;26.000;2024-03-06T00:23:42;11.50;80.00
24426;DHT22;12611;44.446;26.000;2024-03-06T00:26:14;11.50;80.00
24426;DHT22;12611;44.446;26.000;2024-03-06T00:28:43;11.50;79.90
24426;DHT22;12611;44.446;26.000;2024-03-06T00:31:12;11.50;79.90
24426;DHT22;12611;44.446;26.000;2024-03-06T00:33:41;11.50;79.90
24426;DHT22;12611;44.446;26.000;2024-03-06T00:36:09;11.40;80.30
24426;DHT22;12611;44.446;26.000;2024-03-06T00:38:38;11.40;80.30
24426;DHT22;12611;44.446;26.000;2024-03-06T00:41:07;11.40;80.30
24426;DHT22;12611;44.446;26.000;2024-03-06T00:43:39;11.30;80.20
24426;DHT22;12611;44.446;26.000;2024-03-06T00:46:08;11.30;80.10
24426;DHT22;12611;44.446;26.000;2024-03-06T00:48:36;11.30;80.20
24426;DHT22;12611;44.446;26.000;2024-03-06T00:51:08;11.30;80.20
24426;DHT22;12611;44.446;26.000;2024-03-06T00:53:36;11.30;80.10
24426;DHT22;12611;44.446;26.000;2024-03-06T00:56:06;11.30;80.00
24426;DHT22;12611;44.446;26.000;2024-03-06T00:58:35;11.30;80.20
24426;DHT22;12611;44.446;26.000;2024-03-06T01:01:05;11.30;80.30
24426;DHT22;12611;44.446;26.000;2024-03-06T01:03:34;11.20;80.60
24426;DHT22;12611;44.446;26.000;2024-03-06T01:06:02;11.20;80.30
24426;DHT22;12611;44.446;26.000;2024-03-06T01:08:31;11.20;80.30
24426;DHT22;12611;44.446;26.000;2024-03-06T01:11:00;11.20;80.20
24426;DHT22;12611;44.446;26.000;2024-03-06T01:13:28;11.20;80.30
24426;DHT22;12611;44.446;26.000;2024-03-06T01:15:57;11.20;80.20
24426;DHT22;12611;44.446;26.000;2024-03-06T01:18:27;11.20;80.40
24426;DHT22;12611;44.446;26.000;2024-03-06T01:20:56;11.10;80.30
24426;DHT22;12611;44.446;26.000;2024-03-06T01:23:25;11.10;80.40
24426;DHT22;12611;44.446;26.000;2024-03-06T01:25:54;11.10;80.30
24426;DHT22;12611;44.446;26.000;2024-03-06T01:28:22;11.10;80.40
24426;DHT22;12611;44.446;26.000;2024-03-06T01:30:51;11.10;80.30
24426;DHT22;12611;44.446;26.000;2024-03-06T01:33:20;11.10;80.20
24426;DHT22;12611;44.446;26.000;2024-03-06T01:35:50;11.10;80.20
24426;DHT22;12611;44.446;26.000;2024-03-06T01:38:19;11.10;80.20
24426;DHT22;12611;44.446;26.000;2024-03-06T01:40:47;11.20;80.20
24426;DHT22;12611;44.446;26.000;2024-03-06T01:43:20;11.20;80.10
24426;DHT22;12611;44.446;26.000;2024-03-06T01:45:49;11.20;80.00
24426;DHT22;12611;44.446;26.000;2024-03-06T01:48:22;11.20;80.00
24426;DHT22;12611;44.446;26.000;2024-03-06T01:50:56;11.20;79.90
24426;DHT22;12611;44.446;26.000;2024-03-06T01:53:27;11.20;80.00
24426;DHT22;12611;44.446;26.000;2024-03-06T01:55:56;11.20;80.20
24426;DHT22;12611;44.446;26.000;2024-03-06T01:58:25;11.20;80.20
24426;DHT22;12611;44.446;26.000;2024-03-06T02:00:54;11.10;80.20
24426;DHT22;12611;44.446;26.000;2024-03-06T02:03:25;11.20;80.30
24426;DHT22;12611;44.446;26.000;2024-03-06T02:05:55;11.10;80.20
24426;DHT22;12611;44.446;26.000;2024-03-06T02:08:25;11.20;80.30
24426;DHT22;12611;44.446;26.000;2024-03-06T02:10:54;11.20;80.20
24426;DHT22;12611;44.446;26.000;2024-03-06T02:13:23;11.20;80.20
24426;DHT22;12611;44.446;26.000;2024-03-06T02:15:52;11.20;80.20
24426;DHT22;12611;44.446;26.000;2024-03-06T02:18:21;11.10;80.00
24426;DHT22;12611;44.446;26.000;2024-03-06T02:20:51;11.20;80.00
24426;DHT22;12611;44.446;26.000;2024-03-06T02:23:20;11.10;80.00
24426;DHT22;12611;44.446;26.000;2024-03-06T02:25:49;11.10;79.90
24426;DHT22;12611;44.446;26.000;2024-03-06T02:28:18;11.10;80.30
24426;DHT22;12611;44.446;26.000;2024-03-06T02:30:50;11.10;80.30
24426;DHT22;12611;44.446;26.000;2024-03-06T02:33:19;11.10;80.30
24426;DHT22;12611;44.446;26.000;2024-03-06T02:35:48;11.10;81.20
24426;DHT22;12611;44.446;26.000;2024-03-06T02:38:18;11.10;80.20
24426;DHT22;12611;44.446;26.000;2024-03-06T02:40:47;11.10;80.20
24426;DHT22;12611;44.446;26.000;2024-03-06T02:43:16;11.10;80.20
24426;DHT22;12611;44.446;26.000;2024-03-06T02:45:45;11.20;80.10
24426;DHT22;12611;44.446;26.000;2024-03-06T02:48:13;11.10;79.90
24426;DHT22;12611;44.446;26.000;2024-03-06T02:50:42;11.20;79.90
24426;DHT22;12611;44.446;26.000;2024-03-06T02:53:11;11.20;79.90
24426;DHT22;12611;44.446;26.000;2024-03-06T02:55:41;11.20;79.90
24426;DHT22;12611;44.446;26.000;2024-03-06T02:58:10;11.20;80.00
24426;DHT22;12611;44.446;26.000;2024-03-06T03:00:40;11.10;80.00
24426;DHT22;12611;44.446;26.000;2024-03-06T03:03:08;11.10;80.80
24426;DHT22;12611;44.446;26.000;2024-03-06T03:05:39;11.10;79.90
24426;DHT22;12611;44.446;26.000;2024-03-06T03:08:08;11.10;80.00
24426;DHT22;12611;44.446;26.000;2024-03-06T03:10:37;11.10;80.00
24426;DHT22;12611;44.446;26.000;2024-03-06T03:13:07;11.10;80.00
24426;DHT22;12611;44.446;26.000;2024-03-06T03:15:36;11.10;80.50
24426;DHT22;12611;44.446;26.000;2024-03-06T03:18:07;11.10;80.30
24426;DHT22;12611;44.446;26.000;2024-03-06T03:20:35;11.10;80.20
24426;DHT22;12611;44.446;26.000;2024-03-06T03:23:04;11.10;80.40
24426;DHT22;12611;44.446;26.000;2024-03-06T03:25:40;11.10;80.30
24426;DHT22;12611;44.446;26.000;2024-03-06T03:28:10;11.00;80.40
24426;DHT22;12611;44.446;26.000;2024-03-06T03:30:39;11.00;80.30
24426;DHT22;12611;44.446;26.000;2024-03-06T03:33:08;11.00;80.30
24426;DHT22;12611;44.446;26.000;2024-03-06T03:35:36;11.00;80.50
24426;DHT22;12611;44.446;26.000;2024-03-06T03:38:05;11.00;80.50
24426;DHT22;12611;44.446;26.000;2024-03-06T03:40:34;11.00;80.30
24426;DHT22;12611;44.446;26.000;2024-03-06T03:43:02;11.00;80.50
24426;DHT22;12611;44.446;26.000;2024-03-06T03:45:35;11.00;80.70
24426;DHT22;12611;44.446;26.000;2024-03-06T03:48:05;11.00;80.60
24426;DHT22;12611;44.446;26.000;2024-03-06T03:50:34;10.90;80.80
24426;DHT22;12611;44.446;26.000;2024-03-06T03:53:03;11.00;80.70
24426;DHT22;12611;44.446;26.000;2024-03-06T03:55:32;11.00;80.60
24426;DHT22;12611;44.446;26.000;2024-03-06T03:58:00;11.00;80.50
24426;DHT22;12611;44.446;26.000;2024-03-06T04:00:29;11.00;80.50
24426;DHT22;12611;44.446;26.000;2024-03-06T04:02:59;11.00;80.50
24426;DHT22;12611;44.446;26.000;2024-03-06T04:05:28;10.90;80.40
24426;DHT22;12611;44.446;26.000;2024-03-06T04:07:56;10.90;80.60
24426;DHT22;12611;44.446;26.000;2024-03-06T04:10:25;10.90;80.60
24426;DHT22;12611;44.446;26.000;2024-03-06T04:12:53;10.90;80.70
24426;DHT22;12611;44.446;26.000;2024-03-06T04:15:22;10.90;80.80
24426;DHT22;12611;44.446;26.000;2024-03-06T04:17:51;10.90;80.80
24426;DHT22;12611;44.446;26.000;2024-03-06T04:20:22;10.80;80.80
24426;DHT22;12611;44.446;26.000;2024-03-06T04:22:51;10.80;81.70
24426;DHT22;12611;44.446;26.000;2024-03-06T04:25:20;10.80;80.80
24426;DHT22;12611;44.446;26.000;2024-03-06T04:27:50;10.90;80.70
24426;DHT22;12611;44.446;26.000;2024-03-06T04:30:19;10.90;80.80
24426;DHT22;12611;44.446;26.000;2024-03-06T04:32:48;10.90;80.70
24426;DHT22;12611;44.446;26.000;2024-03-06T04:35:17;10.90;80.70
24426;DHT22;12611;44.446;26.000;2024-03-06T04:37:47;10.90;80.80
24426;DHT22;12611;44.446;26.000;2024-03-06T04:40:16;10.90;81.00
24426;DHT22;12611;44.446;26.000;2024-03-06T04:42:45;10.90;80.90
24426;DHT22;12611;44.446;26.000;2024-03-06T04:45:15;10.90;80.90
24426;DHT22;12611;44.446;26.000;2024-03-06T04:47:44;10.90;80.90
24426;DHT22;12611;44.446;26.000;2024-03-06T04:50:13;10.80;80.90
24426;DHT22;12611;44.446;26.000;2024-03-06T04:52:43;10.80;80.80
24426;DHT22;12611;44.446;26.000;2024-03-06T04:55:14;10.90;80.90
24426;DHT22;12611;44.446;26.000;2024-03-06T04:57:47;10.80;80.80
24426;DHT22;12611;44.446;26.000;2024-03-06T05:00:16;10.80;81.30
24426;DHT22;12611;44.446;26.000;2024-03-06T05:02:45;10.80;81.40
24426;DHT22;12611;44.446;26.000;2024-03-06T05:05:33;10.80;81.30
24426;DHT22;12611;44.446;26.000;2024-03-06T05:08:21;10.80;81.20
24426;DHT22;12611;44.446;26.000;2024-03-06T05:11:08;10.80;81.00
24426;DHT22;12611;44.446;26.000;2024-03-06T05:13:54;10.80;81.00
24426;DHT22;12611;44.446;26.000;2024-03-06T05:16:40;10.80;81.10
24426;DHT22;12611;44.446;26.000;2024-03-06T05:19:26;10.80;81.00
24426;DHT22;12611;44.446;26.000;2024-03-06T05:22:16;10.80;81.00
24426;DHT22;12611;44.446;26.000;2024-03-06T05:25:03;10.80;81.10
24426;DHT22;12611;44.446;26.000;2024-03-06T05:27:51;10.80;81.10
24426;DHT22;12611;44.446;26.000;2024-03-06T05:30:37;10.80;81.10
24426;DHT22;12611;44.446;26.000;2024-03-06T05:33:23;10.80;81.10
24426;DHT22;12611;44.446;26.000;2024-03-06T05:36:09;10.80;81.00
24426;DHT22;12611;44.446;26.000;2024-03-06T05:38:55;10.80;81.10
24426;DHT22;12611;44.446;26.000;2024-03-06T05:41:41;10.80;81.10
24426;DHT22;12611;44.446;26.000;2024-03-06T05:44:28;10.80;81.10
24426;DHT22;12611;44.446;26.000;2024-03-06T05:47:14;10.90;81.10
24426;DHT22;12611;44.446;26.000;2024-03-06T05:50:00;10.90;81.20
24426;DHT22;12611;44.446;26.000;2024-03-06T05:52:48;10.90;81.40
24426;DHT22;12611;44.446;26.000;2024-03-06T05:55:34;10.90;81.20
24426;DHT22;12611;44.446;26.000;2024-03-06T05:58:20;10.90;81.20
24426;DHT22;12611;44.446;26.000;2024-03-06T06:00:50;10.90;81.10
24426;DHT22;12611;44.446;26.000;2024-03-06T06:03:19;11.00;81.10
24426;DHT22;12611;44.446;26.000;2024-03-06T06:05:48;11.00;81.00
24426;DHT22;12611;44.446;26.000;2024-03-06T06:08:16;11.00;80.90
24426;DHT22;12611;44.446;26.000;2024-03-06T06:10:45;11.10;80.80
24426;DHT22;12611;44.446;26.000;2024-03-06T06:13:14;11.10;80.80
24426;DHT22;12611;44.446;26.000;2024-03-06T06:15:42;11.20;80.80
24426;DHT22;12611;44.446;26.000;2024-03-06T06:18:12;11.20;80.60
24426;DHT22;12611;44.446;26.000;2024-03-06T06:20:41;11.20;80.50
24426;DHT22;12611;44.446;26.000;2024-03-06T06:23:10;11.30;80.50
24426;DHT22;12611;44.446;26.000;2024-03-06T06:25:39;11.30;80.30
24426;DHT22;12611;44.446;26.000;2024-03-06T06:28:08;11.40;80.30
24426;DHT22;12611;44.446;26.000;2024-03-06T06:30:37;11.40;80.20
24426;DHT22;12611;44.446;26.000;2024-03-06T06:33:06;11.50;80.10
24426;DHT22;12611;44.446;26.000;2024-03-06T06:35:36;11.50;80.00
24426;DHT22;12611;44.446;26.000;2024-03-06T06:38:05;11.50;79.90
24426;DHT22;12611;44.446;26.000;2024-03-06T06:40:34;11.60;79.90
24426;DHT22;12611;44.446;26.000;2024-03-06T06:43:03;11.60;79.70
24426;DHT22;12611;44.446;26.000;2024-03-06T06:45:32;11.60;79.70
24426;DHT22;12611;44.446;26.000;2024-03-06T06:48:00;11.60;79.70
24426;DHT22;12611;44.446;26.000;2024-03-06T06:50:30;11.70;79.70
24426;DHT22;12611;44.446;26.000;2024-03-06T06:53:02;11.70;79.50
24426;DHT22;12611;44.446;26.000;2024-03-06T06:55:31;11.70;79.50
24426;DHT22;12611;44.446;26.000;2024-03-06T06:57:59;11.70;79.30
24426;DHT22;12611;44.446;26.000;2024-03-06T07:00:28;11.70;79.10
24426;DHT22;12611;44.446;26.000;2024-03-06T07:02:57;11.70;79.10
24426;DHT22;12611;44.446;26.000;2024-03-06T07:05:26;11.70;79.00
24426;DHT22;12611;44.446;26.000;2024-03-06T07:07:55;11.80;79.10
24426;DHT22;12611;44.446;26.000;2024-03-06T07:10:26;11.80;78.90
24426;DHT22;12611;44.446;26.000;2024-03-06T07:12:54;11.80;79.00
24426;DHT22;12611;44.446;26.000;2024-03-06T07:15:23;11.80;78.90
24426;DHT22;12611;44.446;26.000;2024-03-06T07:17:52;11.80;78.90
24426;DHT22;12611;44.446;26.000;2024-03-06T07:20:21;11.90;78.90
24426;DHT22;12611;44.446;26.000;2024-03-06T07:22:54;11.90;78.70
24426;DHT22;12611;44.446;26.000;2024-03-06T07:25:23;11.90;78.60
24426;DHT22;12611;44.446;26.000;2024-03-06T07:27:53;11.90;78.50
24426;DHT22;12611;44.446;26.000;2024-03-06T07:30:22;11.90;78.10
24426;DHT22;12611;44.446;26.000;2024-03-06T07:32:50;11.90;78.00
24426;DHT22;12611;44.446;26.000;2024-03-06T07:35:19;12.00;78.30
24426;DHT22;12611;44.446;26.000;2024-03-06T07:37:48;12.00;78.30
24426;DHT22;12611;44.446;26.000;2024-03-06T07:40:17;12.10;78.50
24426;DHT22;12611;44.446;26.000;2024-03-06T07:42:45;12.10;78.40
24426;DHT22;12611;44.446;26.000;2024-03-06T07:45:15;12.10;78.30
24426;DHT22;12611;44.446;26.000;2024-03-06T07:47:44;12.20;78.20
24426;DHT22;12611;44.446;26.000;2024-03-06T07:50:13;12.20;77.90
24426;DHT22;12611;44.446;26.000;2024-03-06T07:52:46;12.20;77.60
24426;DHT22;12611;44.446;26.000;2024-03-06T07:55:15;12.30;77.60
24426;DHT22;12611;44.446;26.000;2024-03-06T07:57:46;12.30;77.40
24426;DHT22;12611;44.446;26.000;2024-03-06T08:00:16;12.40;77.50
24426;DHT22;12611;44.446;26.000;2024-03-06T08:02:47;12.40;77.50
24426;DHT22;12611;44.446;26.000;2024-03-06T08:05:17;12.50;77.30
24426;DHT22;12611;44.446;26.000;2024-03-06T08:07:46;12.50;77.00
24426;DHT22;12611;44.446;26.000;2024-03-06T08:10:15;12.60;77.10
24426;DHT22;12611;44.446;26.000;2024-03-06T08:12:46;12.60;76.70
24426;DHT22;12611;44.446;26.000;2024-03-06T08:15:18;12.70;76.90
24426;DHT22;12611;44.446;26.000;2024-03-06T08:17:48;12.70;76.50
24426;DHT22;12611;44.446;26.000;2024-03-06T08:20:19;12.80;76.30
24426;DHT22;12611;44.446;26.000;2024-03-06T08:22:47;12.80;76.10
24426;DHT22;12611;44.446;26.000;2024-03-06T08:25:17;12.80;75.90
24426;DHT22;12611;44.446;26.000;2024-03-06T08:27:46;12.90;75.90
24426;DHT22;12611;44.446;26.000;2024-03-06T08:30:14;12.90;75.20
24426;DHT22;12611;44.446;26.000;2024-03-06T08:32:45;13.00;75.50
24426;DHT22;12611;44.446;26.000;2024-03-06T08:35:13;13.00;75.00
24426;DHT22;12611;44.446;26.000;2024-03-06T08:37:48;13.00;74.00
24426;DHT22;12611;44.446;26.000;2024-03-06T08:40:18;13.10;74.50
24426;DHT22;12611;44.446;26.000;2024-03-06T08:42:47;13.10;73.70
24426;DHT22;12611;44.446;26.000;2024-03-06T08:45:16;13.20;72.70
24426;DHT22;12611;44.446;26.000;2024-03-06T08:47:47;13.30;73.30
24426;DHT22;12611;44.446;26.000;2024-03-06T08:50:17;13.30;72.70
24426;DHT22;12611;44.446;26.000;2024-03-06T08:52:45;13.30;72.70
24426;DHT22;12611;44.446;26.000;2024-03-06T08:55:14;13.40;72.50
24426;DHT22;12611;44.446;26.000;2024-03-06T08:57:43;13.50;72.50
24426;DHT22;12611;44.446;26.000;2024-03-06T09:00:13;13.60;72.70
24426;DHT22;12611;44.446;26.000;2024-03-06T09:02:42;13.60;71.70
24426;DHT22;12611;44.446;26.000;2024-03-06T09:05:13;13.60;72.00
24426;DHT22;12611;44.446;26.000;2024-03-06T09:07:41;13.70;72.00
24426;DHT22;12611;44.446;26.000;2024-03-06T09:10:11;13.70;71.50
24426;DHT22;12611;44.446;26.000;2024-03-06T09:12:40;13.80;71.50
24426;DHT22;12611;44.446;26.000;2024-03-06T09:15:09;13.80;72.10
24426;DHT22;12611;44.446;26.000;2024-03-06T09:17:39;13.80;71.70
24426;DHT22;12611;44.446;26.000;2024-03-06T09:20:10;13.90;71.40
24426;DHT22;12611;44.446;26.000;2024-03-06T09:22:43;14.00;71.50
24426;DHT22;12611;44.446;26.000;2024-03-06T09:25:11;14.00;71.40
24426;DHT22;12611;44.446;26.000;2024-03-06T09:27:43;14.00;71.20
24426;DHT22;12611;44.446;26.000;2024-03-06T09:30:13;14.10;71.40
24426;DHT22;12611;44.446;26.000;2024-03-06T09:32:43;14.10;70.20
24426;DHT22;12611;44.446;26.000;2024-03-06T09:35:12;14.20;70.70
24426;DHT22;12611;44.446;26.000;2024-03-06T09:37:46;14.20;70.00
24426;DHT22;12611;44.446;26.000;2024-03-06T09:40:22;14.30;70.00
24426;DHT22;12611;44.446;26.000;2024-03-06T09:42:51;14.30;68.50
24426;DHT22;12611;44.446;26.000;2024-03-06T09:45:20;14.40;68.40
24426;DHT22;12611;44.446;26.000;2024-03-06T09:47:50;14.50;68.40
24426;DHT22;12611;44.446;26.000;2024-03-06T09:50:23;14.50;67.70
24426;DHT22;12611;44.446;26.000;2024-03-06T09:52:56;14.60;68.40
24426;DHT22;12611;44.446;26.000;2024-03-06T09:55:25;14.60;69.30
24426;DHT22;12611;44.446;26.000;2024-03-06T09:57:55;14.70;68.60
24426;DHT22;12611;44.446;26.000;2024-03-06T10:00:23;14.70;67.70
24426;DHT22;12611;44.446;26.000;2024-03-06T10:02:57;14.70;66.90
24426;DHT22;12611;44.446;26.000;2024-03-06T10:05:27;14.80;67.40
24426;DHT22;12611;44.446;26.000;2024-03-06T10:08:00;14.80;67.50
24426;DHT22;12611;44.446;26.000;2024-03-06T10:10:29;14.90;67.80
24426;DHT22;12611;44.446;26.000;2024-03-06T10:12:58;14.90;67.30
24426;DHT22;12611;44.446;26.000;2024-03-06T10:15:28;14.90;66.90
24426;DHT22;12611;44.446;26.000;2024-03-06T10:18:13;14.80;65.30
24426;DHT22;12611;44.446;26.000;2024-03-06T10:20:43;14.90;66.30
24426;DHT22;12611;44.446;26.000;2024-03-06T10:23:15;14.90;65.90
24426;DHT22;12611;44.446;26.000;2024-03-06T10:25:46;15.00;66.10
24426;DHT22;12611;44.446;26.000;2024-03-06T10:28:20;15.00;66.30
24426;DHT22;12611;44.446;26.000;2024-03-06T10:30:51;15.10;66.60
24426;DHT22;12611;44.446;26.000;2024-03-06T10:33:20;15.20;66.90
24426;DHT22;12611;44.446;26.000;2024-03-06T10:35:49;15.10;64.80
24426;DHT22;12611;44.446;26.000;2024-03-06T10:38:24;15.20;66.60
24426;DHT22;12611;44.446;26.000;2024-03-06T10:41:00;15.30;65.20
24426;DHT22;12611;44.446;26.000;2024-03-06T10:43:32;15.20;62.80
24426;DHT22;12611;44.446;26.000;2024-03-06T10:46:06;15.30;63.90
24426;DHT22;12611;44.446;26.000;2024-03-06T10:48:36;15.30;64.30
24426;DHT22;12611;44.446;26.000;2024-03-06T10:51:10;15.40;64.20
24426;DHT22;12611;44.446;26.000;2024-03-06T10:53:42;15.40;64.50
24426;DHT22;12611;44.446;26.000;2024-03-06T10:56:12;15.50;64.40
24426;DHT22;12611;44.446;26.000;2024-03-06T10:58:44;15.50;64.20
24426;DHT22;12611;44.446;26.000;2024-03-06T11:01:17;15.50;62.70
24426;DHT22;12611;44.446;26.000;2024-03-06T11:03:47;15.60;63.50
24426;DHT22;12611;44.446;26.000;2024-03-06T11:06:16;15.60;63.20
24426;DHT22;12611;44.446;26.000;2024-03-06T11:08:47;15.70;63.70
24426;DHT22;12611;44.446;26.000;2024-03-06T11:11:21;15.70;63.50
24426;DHT22;12611;44.446;26.000;2024-03-06T11:13:53;15.60;61.80
24426;DHT22;12611;44.446;26.000;2024-03-06T11:16:28;15.60;61.90
24426;DHT22;12611;44.446;26.000;2024-03-06T11:19:09;15.60;61.80
24426;DHT22;12611;44.446;26.000;2024-03-06T11:21:48;15.60;62.20
24426;DHT22;12611;44.446;26.000;2024-03-06T11:24:22;15.70;61.90
24426;DHT22;12611;44.446;26.000;2024-03-06T11:26:56;15.70;62.00
24426;DHT22;12611;44.446;26.000;2024-03-06T11:29:28;15.80;62.30
24426;DHT22;12611;44.446;26.000;2024-03-06T11:32:05;15.80;62.00
24426;DHT22;12611;44.446;26.000;2024-03-06T11:34:37;15.80;61.70
24426;DHT22;12611;44.446;26.000;2024-03-06T11:37:07;15.90;62.10
24426;DHT22;12611;44.446;26.000;2024-03-06T11:39:40;15.90;62.20
24426;DHT22;12611;44.446;26.000;2024-03-06T11:42:13;16.00;62.70
24426;DHT22;12611;44.446;26.000;2024-03-06T11:44:53;16.00;61.60
24426;DHT22;12611;44.446;26.000;2024-03-06T11:47:23;16.00;61.70
24426;DHT22;12611;44.446;26.000;2024-03-06T11:49:53;16.10;61.90
24426;DHT22;12611;44.446;26.000;2024-03-06T11:52:22;16.10;61.70
24426;DHT22;12611;44.446;26.000;2024-03-06T11:54:53;16.10;60.50
24426;DHT22;12611;44.446;26.000;2024-03-06T11:57:22;16.10;61.30
24426;DHT22;12611;44.446;26.000;2024-03-06T11:59:52;16.20;61.50
24426;DHT22;12611;44.446;26.000;2024-03-06T12:02:22;16.20;60.50
24426;DHT22;12611;44.446;26.000;2024-03-06T12:04:51;16.20;60.20
24426;DHT22;12611;44.446;26.000;2024-03-06T12:07:21;16.20;59.60
24426;DHT22;12611;44.446;26.000;2024-03-06T12:09:51;16.10;58.80
24426;DHT22;12611;44.446;26.000;2024-03-06T12:12:21;16.10;59.40
24426;DHT22;12611;44.446;26.000;2024-03-06T12:14:57;16.10;59.40
24426;DHT22;12611;44.446;26.000;2024-03-06T12:17:28;16.00;59.40
24426;DHT22;12611;44.446;26.000;2024-03-06T12:19:56;16.00;59.70
24426;DHT22;12611;44.446;26.000;2024-03-06T12:22:25;15.90;59.40
24426;DHT22;12611;44.446;26.000;2024-03-06T12:24:59;16.00;60.00
24426;DHT22;12611;44.446;26.000;2024-03-06T12:27:30;16.00;60.00
24426;DHT22;12611;44.446;26.000;2024-03-06T12:30:03;15.90;59.50
24426;DHT22;12611;44.446;26.000;2024-03-06T12:32:39;15.90;59.90
24426;DHT22;12611;44.446;26.000;2024-03-06T12:35:08;15.90;60.30
24426;DHT22;12611;44.446;26.000;2024-03-06T12:37:37;15.90;61.20
24426;DHT22;12611;44.446;26.000;2024-03-06T12:40:08;15.90;60.20
24426;DHT22;12611;44.446;26.000;2024-03-06T12:42:42;15.80;59.50
24426;DHT22;12611;44.446;26.000;2024-03-06T12:45:13;15.70;59.10
24426;DHT22;12611;44.446;26.000;2024-03-06T12:47:41;15.70;59.60
24426;DHT22;12611;44.446;26.000;2024-03-06T12:50:11;15.70;59.60
24426;DHT22;12611;44.446;26.000;2024-03-06T12:52:40;15.60;59.40
24426;DHT22;12611;44.446;26.000;2024-03-06T12:55:11;15.50;59.20
24426;DHT22;12611;44.446;26.000;2024-03-06T12:57:42;15.50;59.50
24426;DHT22;12611;44.446;26.000;2024-03-06T13:00:11;15.50;60.10
24426;DHT22;12611;44.446;26.000;2024-03-06T13:02:43;15.50;60.10
24426;DHT22;12611;44.446;26.000;2024-03-06T13:05:12;15.50;59.60
24426;DHT22;12611;44.446;26.000;2024-03-06T13:07:43;15.40;60.00
24426;DHT22;12611;44.446;26.000;2024-03-06T13:10:12;15.40;59.80
24426;DHT22;12611;44.446;26.000;2024-03-06T13:12:42;15.40;60.10
24426;DHT22;12611;44.446;26.000;2024-03-06T13:15:10;15.40;60.00
24426;DHT22;12611;44.446;26.000;2024-03-06T13:17:39;15.40;60.10
24426;DHT22;12611;44.446;26.000;2024-03-06T13:20:08;15.40;60.20
24426;DHT22;12611;44.446;26.000;2024-03-06T13:22:39;15.40;60.30
24426;DHT22;12611;44.446;26.000;2024-03-06T13:25:08;15.50;60.40
24426;DHT22;12611;44.446;26.000;2024-03-06T13:27:37;15.40;60.10
24426;DHT22;12611;44.446;26.000;2024-03-06T13:30:08;15.40;60.40
24426;DHT22;12611;44.446;26.000;2024-03-06T13:32:36;15.50;60.80
24426;DHT22;12611;44.446;26.000;2024-03-06T13:35:06;15.40;60.70
24426;DHT22;12611;44.446;26.000;2024-03-06T13:37:39;15.50;60.60
24426;DHT22;12611;44.446;26.000;2024-03-06T13:40:09;15.50;61.00
24426;DHT22;12611;44.446;26.000;2024-03-06T13:42:40;15.40;61.00
24426;DHT22;12611;44.446;26.000;2024-03-06T13:45:11;15.40;61.20
24426;DHT22;12611;44.446;26.000;2024-03-06T13:47:41;15.40;61.30
24426;DHT22;12611;44.446;26.000;2024-03-06T13:50:10;15.40;61.40
24426;DHT22;12611;44.446;26.000;2024-03-06T13:52:40;15.40;61.50
24426;DHT22;12611;44.446;26.000;2024-03-06T13:55:09;15.40;61.70
24426;DHT22;12611;44.446;26.000;2024-03-06T13:57:39;15.40;61.70
24426;DHT22;12611;44.446;26.000;2024-03-06T14:00:11;15.40;61.70
24426;DHT22;12611;44.446;26.000;2024-03-06T14:02:45;15.40;61.50
24426;DHT22;12611;44.446;26.000;2024-03-06T14:05:15;15.40;61.20
24426;DHT22;12611;44.446;26.000;2024-03-06T14:07:43;15.40;61.60
24426;DHT22;12611;44.446;26.000;2024-03-06T14:10:12;15.40;61.70
24426;DHT22;12611;44.446;26.000;2024-03-06T14:12:41;15.40;61.80
24426;DHT22;12611;44.446;26.000;2024-03-06T14:15:11;15.40;61.90
24426;DHT22;12611;44.446;26.000;2024-03-06T14:17:40;15.40;62.00
24426;DHT22;12611;44.446;26.000;2024-03-06T14:20:10;15.40;62.10
24426;DHT22;12611;44.446;26.000;2024-03-06T14:22:40;15.40;62.20
24426;DHT22;12611;44.446;26.000;2024-03-06T14:25:09;15.40;62.00
24426;DHT22;12611;44.446;26.000;2024-03-06T14:27:38;15.50;62.20
24426;DHT22;12611;44.446;26.000;2024-03-06T14:30:07;15.50;62.20
24426;DHT22;12611;44.446;26.000;2024-03-06T14:32:39;15.50;62.30
24426;DHT22;12611;44.446;26.000;2024-03-06T14:35:08;15.50;62.50
24426;DHT22;12611;44.446;26.000;2024-03-06T14:37:37;15.40;62.50
24426;DHT22;12611;44.446;26.000;2024-03-06T14:40:07;15.40;62.50
24426;DHT22;12611;44.446;26.000;2024-03-06T14:42:36;15.40;62.50
24426;DHT22;12611;44.446;26.000;2024-03-06T14:45:06;15.40;62.50
24426;DHT22;12611;44.446;26.000;2024-03-06T14:47:35;15.40;62.40
24426;DHT22;12611;44.446;26.000;2024-03-06T14:50:07;15.40;62.40
24426;DHT22;12611;44.446;26.000;2024-03-06T14:52:35;15.40;62.50
24426;DHT22;12611;44.446;26.000;2024-03-06T14:55:06;15.30;62.40
24426;DHT22;12611;44.446;26.000;2024-03-06T14:57:36;15.30;62.50
24426;DHT22;12611;44.446;26.000;2024-03-06T15:00:06;15.30;62.60
24426;DHT22;12611;44.446;26.000;2024-03-06T15:02:35;15.30;62.70
24426;DHT22;12611;44.446;26.000;2024-03-06T15:05:06;15.20;62.70
24426;DHT22;12611;44.446;26.000;2024-03-06T15:07:35;15.20;62.70
24426;DHT22;12611;44.446;26.000;2024-03-06T15:10:04;15.20;62.70
24426;DHT22;12611;44.446;26.000;2024-03-06T15:12:33;15.10;62.60
24426;DHT22;12611;44.446;26.000;2024-03-06T15:15:04;15.10;62.50
24426;DHT22;12611;44.446;26.000;2024-03-06T15:17:33;15.00;62.70
24426;DHT22;12611;44.446;26.000;2024-03-06T15:20:08;15.00;63.00
24426;DHT22;12611;44.446;26.000;2024-03-06T15:22:38;14.90;63.00
24426;DHT22;12611;44.446;26.000;2024-03-06T15:25:09;14.90;63.10
24426;DHT22;12611;44.446;26.000;2024-03-06T15:27:39;14.90;63.30
24426;DHT22;12611;44.446;26.000;2024-03-06T15:30:08;14.80;63.40
24426;DHT22;12611;44.446;26.000;2024-03-06T15:32:38;14.80;63.60
24426;DHT22;12611;44.446;26.000;2024-03-06T15:35:09;14.70;63.70
24426;DHT22;12611;44.446;26.000;2024-03-06T15:37:39;14.70;64.30